createdAt,value
2019-01-11T00:00:37.151Z,11.73
2019-01-11T00:03:06.493Z,11.20
2019-01-11T00:05:38.583Z,10.50
2019-01-11T00:08:08.113Z,10.50
2019-01-11T00:10:37.617Z,14.20
2019-01-11T00:13:09.395Z,12.07
2019-01-11T00:15:39.090Z,13.30
2019-01-11T00:18:10.774Z,12.07
2019-01-11T00:20:42.216Z,11.57
2019-01-11T00:23:11.730Z,12.33
2019-01-11T00:25:43.462Z,11.00
2019-01-11T00:28:13.362Z,12.00
2019-01-11T00:30:45.396Z,10.57
2019-01-11T00:33:17.282Z,12.40
2019-01-11T00:35:48.834Z,10.63
2019-01-11T00:38:20.201Z,12.20
2019-01-11T00:40:52.736Z,10.70
2019-01-11T00:43:24.068Z,10.43
2019-01-11T00:45:53.602Z,11.30
2019-01-11T00:48:25.283Z,12.63
2019-01-11T00:50:55.173Z,13.30
2019-01-11T00:53:26.783Z,12.90
2019-01-11T00:55:56.944Z,13.60
2019-01-11T00:58:26.538Z,11.80
2019-01-11T01:00:56.079Z,10.10
2019-01-11T01:03:25.503Z,9.57
2019-01-11T01:05:55.094Z,7.97
2019-01-11T01:08:30.411Z,10.60
2019-01-11T01:10:55.747Z,11.00
2019-01-11T01:13:25.307Z,9.10
2019-01-11T01:15:54.991Z,9.87
2019-01-11T01:18:26.967Z,9.37
2019-01-11T01:20:56.415Z,10.30
2019-01-11T01:23:25.985Z,9.80
2019-01-11T01:25:57.672Z,10.07
2019-01-11T01:28:30.978Z,11.77
2019-01-11T01:31:02.943Z,12.07
2019-01-11T01:33:32.514Z,11.73
2019-01-11T01:36:03.159Z,10.53
2019-01-11T01:38:34.381Z,11.37
2019-01-11T01:41:04.191Z,11.43
2019-01-11T01:43:35.941Z,11.23
2019-01-11T01:46:06.021Z,11.97
2019-01-11T01:48:35.292Z,11.20
2019-01-11T01:51:04.790Z,12.57
2019-01-11T01:53:36.763Z,10.10
2019-01-11T01:56:06.154Z,10.87
2019-01-11T01:58:35.525Z,11.40
2019-01-11T02:01:05.520Z,10.30
2019-01-11T02:03:36.870Z,10.97
2019-01-11T02:06:08.744Z,10.40
2019-01-11T02:08:41.488Z,9.97
2019-01-11T02:11:11.417Z,10.30
2019-01-11T02:13:44.873Z,11.20
2019-01-11T02:16:14.350Z,10.43
2019-01-11T02:18:44.090Z,11.07
2019-01-11T02:21:15.325Z,11.10
2019-01-11T02:23:45.042Z,10.20
2019-01-11T02:26:14.399Z,11.13
2019-01-11T02:28:46.208Z,10.30
2019-01-11T02:31:15.630Z,10.83
2019-01-11T02:33:48.411Z,11.63
2019-01-11T02:36:18.316Z,10.63
2019-01-11T02:38:48.228Z,9.73
2019-01-11T02:41:19.687Z,8.77
2019-01-11T02:43:49.240Z,8.97
2019-01-11T02:46:20.216Z,8.90
2019-01-11T02:48:49.666Z,8.27
2019-01-11T02:51:21.518Z,8.80
2019-01-11T02:53:52.778Z,8.77
2019-01-11T02:56:24.157Z,9.43
2019-01-11T02:58:54.993Z,9.47
2019-01-11T03:01:26.309Z,9.37
2019-01-11T03:03:57.010Z,10.47
2019-01-11T03:06:28.861Z,10.63
2019-01-11T03:09:00.285Z,10.50
2019-01-11T03:11:29.927Z,9.80
2019-01-11T03:13:59.776Z,9.80
2019-01-11T03:16:32.015Z,8.53
2019-01-11T03:19:01.347Z,7.80
2019-01-11T03:21:32.962Z,9.60
2019-01-11T03:24:02.421Z,10.30
2019-01-11T03:26:32.230Z,9.47
2019-01-11T03:29:01.756Z,8.10
2019-01-11T03:31:36.900Z,8.50
2019-01-11T03:34:08.223Z,8.67
2019-01-11T03:36:38.056Z,8.73
2019-01-11T03:39:08.685Z,8.73
2019-01-11T03:41:51.681Z,8.77
2019-01-11T03:44:21.796Z,8.63
2019-01-11T03:46:53.658Z,8.83
2019-01-11T03:49:23.186Z,9.57
2019-01-11T03:51:54.798Z,8.37
2019-01-11T03:54:26.674Z,9.57
2019-01-11T03:56:58.728Z,9.10
2019-01-11T03:59:30.098Z,9.67
2019-01-11T04:01:59.521Z,7.73
2019-01-11T04:04:30.297Z,9.97
2019-01-11T04:07:00.024Z,8.43
2019-01-11T04:09:30.303Z,9.40
2019-01-11T04:12:00.143Z,9.63
2019-01-11T04:14:32.295Z,8.30
2019-01-11T04:17:02.275Z,8.90
2019-01-11T04:19:32.301Z,9.70
2019-01-11T04:22:21.466Z,8.03
2019-01-11T04:25:07.827Z,9.03
2019-01-11T04:27:37.245Z,8.80
2019-01-11T04:30:12.331Z,9.20
2019-01-11T04:32:42.496Z,8.53
2019-01-11T04:35:13.087Z,9.07
2019-01-11T04:37:44.673Z,9.90
2019-01-11T04:40:17.772Z,9.10
2019-01-11T04:42:47.171Z,7.80
2019-01-11T04:45:17.483Z,7.77
2019-01-11T04:47:46.949Z,8.47
2019-01-11T04:50:20.301Z,8.60
2019-01-11T04:52:51.534Z,8.50
2019-01-11T04:55:21.963Z,8.37
2019-01-11T04:57:54.027Z,8.57
2019-01-11T05:00:24.281Z,9.40
2019-01-11T05:02:53.702Z,8.43
2019-01-11T05:05:23.251Z,9.07
2019-01-11T05:07:55.069Z,8.30
2019-01-11T05:10:27.044Z,8.10
2019-01-11T05:12:58.062Z,9.37
2019-01-11T05:15:29.524Z,9.50
2019-01-11T05:17:58.994Z,9.10
2019-01-11T05:20:28.368Z,8.37
2019-01-11T05:22:58.122Z,9.00
2019-01-11T05:25:27.495Z,8.80
2019-01-11T05:27:57.767Z,9.17
2019-01-11T05:30:29.796Z,8.27
2019-01-11T05:33:03.152Z,9.73
2019-01-11T05:35:35.213Z,8.53
2019-01-11T05:38:06.109Z,9.93
2019-01-11T05:40:35.492Z,10.00
2019-01-11T05:43:05.363Z,9.73
2019-01-11T05:45:35.729Z,9.57
2019-01-11T05:48:05.336Z,9.57
2019-01-11T05:50:34.628Z,9.37
2019-01-11T05:53:05.125Z,11.53
2019-01-11T05:55:47.370Z,11.03
2019-01-11T05:58:44.769Z,9.30
2019-01-11T06:01:18.024Z,8.17
2019-01-11T06:03:47.866Z,7.63
2019-01-11T06:06:17.754Z,7.83
2019-01-11T06:08:47.117Z,9.50
2019-01-11T06:11:17.003Z,9.50
2019-01-11T06:13:46.580Z,9.43
2019-01-11T06:16:19.045Z,8.87
2019-01-11T06:18:49.483Z,7.73
2019-01-11T06:21:23.316Z,8.97
2019-01-11T06:24:12.335Z,8.37
2019-01-11T06:26:45.049Z,8.27
2019-01-11T06:29:14.522Z,8.80
2019-01-11T06:31:45.240Z,9.57
2019-01-11T06:34:16.497Z,8.40
2019-01-11T06:36:48.348Z,8.80
2019-01-11T06:39:20.274Z,8.43
2019-01-11T06:41:54.381Z,8.50
2019-01-11T06:44:26.361Z,7.77
2019-01-11T06:46:58.615Z,7.70
2019-01-11T06:49:30.181Z,7.27
2019-01-11T06:52:02.501Z,7.10
2019-01-11T06:54:32.106Z,8.50
2019-01-11T06:57:02.599Z,8.87
2019-01-11T06:59:32.350Z,9.53
2019-01-11T07:02:03.753Z,9.60
2019-01-11T07:04:36.484Z,9.67
2019-01-11T07:07:07.317Z,9.23
2019-01-11T07:09:36.814Z,9.30
2019-01-11T07:12:07.875Z,10.63
2019-01-11T07:14:38.370Z,12.10
2019-01-11T07:17:08.878Z,11.90
2019-01-11T07:19:40.280Z,11.80
2019-01-11T07:22:11.787Z,9.97
2019-01-11T07:24:43.009Z,12.00
2019-01-11T07:27:13.911Z,8.90
2019-01-11T07:29:45.554Z,9.80
2019-01-11T07:32:16.917Z,8.37
2019-01-11T07:34:49.019Z,8.40
2019-01-11T07:37:19.416Z,8.80
2019-01-11T07:39:49.870Z,10.10
2019-01-11T07:42:20.871Z,9.50
2019-01-11T07:44:52.792Z,8.83
2019-01-11T07:47:24.212Z,8.90
2019-01-11T07:49:54.907Z,9.10
2019-01-11T07:52:26.256Z,8.93
2019-01-11T07:54:56.998Z,8.87
2019-01-11T07:57:29.985Z,8.53
2019-01-11T08:00:01.082Z,10.23
2019-01-11T08:02:32.071Z,10.00
2019-01-11T08:05:02.636Z,10.20
2019-01-11T08:07:33.316Z,9.93
2019-01-11T08:10:05.536Z,9.77
2019-01-11T08:12:37.016Z,9.37
2019-01-11T08:15:08.561Z,10.13
2019-01-11T08:17:40.563Z,11.80
2019-01-11T08:20:12.287Z,10.33
2019-01-11T08:22:43.158Z,9.77
2019-01-11T08:25:13.895Z,10.73
2019-01-11T08:27:45.497Z,10.07
2019-01-11T08:30:18.191Z,10.00
2019-01-11T08:32:50.036Z,10.10
2019-01-11T08:35:21.833Z,9.00
2019-01-11T08:37:53.906Z,11.37
2019-01-11T08:40:25.655Z,10.10
2019-01-11T08:42:57.782Z,9.43
2019-01-11T08:45:29.657Z,9.13
2019-01-11T08:48:00.484Z,8.97
2019-01-11T08:50:31.644Z,9.70
2019-01-11T08:53:03.005Z,8.70
2019-01-11T08:55:35.017Z,9.17
2019-01-11T08:58:07.658Z,10.20
2019-01-11T09:00:38.046Z,10.50
2019-01-11T09:03:08.895Z,9.50
2019-01-11T09:05:41.713Z,8.73
2019-01-11T09:08:13.510Z,7.77
2019-01-11T09:10:45.852Z,7.47
2019-01-11T09:13:16.672Z,7.60
2019-01-11T09:15:47.479Z,8.70
2019-01-11T09:18:19.547Z,8.83
2019-01-11T09:20:50.792Z,8.83
2019-01-11T09:23:23.573Z,8.13
2019-01-11T09:25:54.250Z,7.77
2019-01-11T09:28:25.370Z,8.93
2019-01-11T09:30:57.026Z,9.23
2019-01-11T09:33:29.104Z,8.80
2019-01-11T09:36:01.435Z,9.20
2019-01-11T09:38:33.482Z,9.40
2019-01-11T09:41:04.905Z,8.57
2019-01-11T09:43:35.853Z,9.30
2019-01-11T09:46:09.020Z,9.13
2019-01-11T09:48:41.515Z,9.43
2019-01-11T09:51:15.821Z,9.57
2019-01-11T09:53:48.307Z,9.30
2019-01-11T09:56:18.310Z,10.00
2019-01-11T09:58:49.297Z,9.40
2019-01-11T10:01:20.975Z,10.20
2019-01-11T10:03:54.349Z,9.70
2019-01-11T10:06:26.876Z,9.93
2019-01-11T10:08:59.129Z,8.47
2019-01-11T10:11:31.465Z,8.87
2019-01-11T10:14:03.840Z,8.47
2019-01-11T10:16:36.268Z,9.00
2019-01-11T10:19:06.283Z,8.00
2019-01-11T10:21:37.741Z,9.80
2019-01-11T10:24:10.665Z,9.77
2019-01-11T10:26:42.152Z,8.40
2019-01-11T10:29:13.616Z,8.37
2019-01-11T10:31:43.392Z,9.93
2019-01-11T10:34:15.895Z,7.20
2019-01-11T10:36:47.311Z,8.73
2019-01-11T10:39:19.968Z,9.27
2019-01-11T10:41:51.521Z,9.40
2019-01-11T10:44:23.555Z,8.10
2019-01-11T10:46:53.250Z,8.60
2019-01-11T10:49:24.446Z,8.30
2019-01-11T10:51:54.010Z,7.40
2019-01-11T10:54:37.481Z,9.20
2019-01-11T10:57:09.511Z,8.97
2019-01-11T10:59:39.727Z,8.43
2019-01-11T11:02:11.286Z,9.03
2019-01-11T11:04:43.356Z,7.87
2019-01-11T11:07:15.683Z,8.63
2019-01-11T11:09:47.653Z,8.33
2019-01-11T11:12:20.050Z,9.30
2019-01-11T11:14:53.412Z,8.90
2019-01-11T11:17:25.858Z,10.10
2019-01-11T11:19:59.617Z,9.30
2019-01-11T11:22:31.229Z,9.73
2019-01-11T11:25:04.615Z,9.93
2019-01-11T11:27:35.424Z,9.37
2019-01-11T11:30:07.505Z,9.20
2019-01-11T11:33:02.679Z,9.73
2019-01-11T11:35:34.206Z,8.90
2019-01-11T11:38:03.724Z,8.30
2019-01-11T11:40:35.524Z,7.70
2019-01-11T11:43:08.339Z,7.60
2019-01-11T11:45:39.532Z,7.20
2019-01-11T11:48:10.244Z,8.67
2019-01-11T11:50:41.505Z,8.47
2019-01-11T11:53:16.358Z,9.43
2019-01-11T11:55:46.161Z,7.80
2019-01-11T11:58:17.270Z,9.17
2019-01-11T12:00:46.900Z,8.30
2019-01-11T12:03:18.332Z,8.77
2019-01-11T12:05:50.560Z,7.80
2019-01-11T12:08:21.088Z,10.00
2019-01-11T12:10:54.862Z,8.97
2019-01-11T12:13:24.993Z,9.70
2019-01-11T12:15:55.790Z,9.67
2019-01-11T12:18:25.572Z,7.90
2019-01-11T12:20:57.571Z,9.70
2019-01-11T12:23:29.277Z,8.73
2019-01-11T12:25:59.774Z,10.43
2019-01-11T12:28:30.529Z,8.63
2019-01-11T12:31:02.222Z,9.13
2019-01-11T12:33:33.931Z,10.37
2019-01-11T12:36:05.297Z,9.23
2019-01-11T12:38:38.315Z,9.00
2019-01-11T12:41:09.988Z,9.90
2019-01-11T12:43:41.760Z,8.10
2019-01-11T12:46:14.120Z,9.60
2019-01-11T12:48:44.954Z,10.80
2019-01-11T12:51:19.033Z,9.17
2019-01-11T12:56:52.452Z,9.27
2019-01-11T12:59:22.471Z,8.70
2019-01-11T13:02:20.464Z,9.30
2019-01-11T13:04:50.018Z,8.87
2019-01-11T13:07:19.555Z,9.43
2019-01-11T13:09:50.236Z,8.90
2019-01-11T13:12:19.943Z,10.13
2019-01-11T13:14:53.009Z,8.57
2019-01-11T13:17:23.528Z,9.43
2019-01-11T13:19:58.111Z,9.57
2019-01-11T13:22:27.867Z,10.17
2019-01-11T13:24:57.183Z,9.50
2019-01-11T13:27:26.589Z,10.03
2019-01-11T13:29:58.558Z,7.70
2019-01-11T13:32:28.297Z,7.47
2019-01-11T13:34:58.348Z,9.10
2019-01-11T13:37:29.667Z,9.13
2019-01-11T13:39:59.153Z,8.97
2019-01-11T13:42:28.684Z,8.87
2019-01-11T13:44:58.110Z,9.90
2019-01-11T13:47:28.046Z,10.00
2019-01-11T13:50:00.240Z,9.87
2019-01-11T13:52:31.412Z,10.23
2019-01-11T13:55:04.666Z,9.67
2019-01-11T13:57:34.561Z,9.10
2019-01-11T14:00:08.306Z,9.77
2019-01-11T14:02:40.653Z,10.30
2019-01-11T14:05:11.485Z,10.50
2019-01-11T14:07:43.755Z,9.67
2019-01-11T14:10:16.104Z,8.83
2019-01-11T14:12:45.667Z,10.07
2019-01-11T14:15:15.342Z,8.93
2019-01-11T14:17:48.524Z,11.07
2019-01-11T14:20:22.689Z,9.43
2019-01-11T14:22:54.732Z,9.87
2019-01-11T14:25:24.746Z,10.13
2019-01-11T14:27:57.179Z,10.67
2019-01-11T14:30:27.268Z,9.67
2019-01-11T14:33:00.244Z,10.83
2019-01-11T14:35:31.015Z,10.80
2019-01-11T14:38:00.434Z,10.77
2019-01-11T14:40:30.058Z,8.83
2019-01-11T14:43:01.961Z,9.47
2019-01-11T14:45:31.476Z,10.07
2019-01-11T14:48:04.046Z,8.57
2019-01-11T14:50:33.570Z,10.37
2019-01-11T14:53:05.844Z,9.00
2019-01-11T14:55:38.236Z,8.67
2019-01-11T14:58:09.796Z,9.10
2019-01-11T15:00:42.007Z,9.03
2019-01-11T15:03:13.492Z,9.23
2019-01-11T15:05:42.946Z,10.17
2019-01-11T15:08:15.548Z,8.30
2019-01-11T15:10:45.161Z,7.83
2019-01-11T15:13:16.908Z,7.60
2019-01-11T15:15:48.666Z,8.10
2019-01-11T15:18:18.674Z,8.07
2019-01-11T15:20:50.407Z,8.60
2019-01-11T15:23:21.822Z,8.60
2019-01-11T15:25:53.636Z,9.77
2019-01-11T15:28:24.864Z,8.30
2019-01-11T15:30:54.523Z,7.10
2019-01-11T15:33:24.598Z,8.37
2019-01-11T15:35:55.276Z,8.23
2019-01-11T15:38:26.519Z,9.33
2019-01-11T15:40:57.363Z,7.60
2019-01-11T15:43:29.382Z,8.40
2019-01-11T15:46:07.490Z,7.93
2019-01-11T15:48:52.092Z,8.37
2019-01-11T15:51:28.514Z,6.27
2019-01-11T15:53:59.291Z,6.73
2019-01-11T15:56:33.672Z,7.17
2019-01-11T15:59:04.554Z,8.53
2019-01-11T16:01:35.744Z,7.57
2019-01-11T16:04:10.490Z,8.37
2019-01-11T16:06:42.688Z,7.00
2019-01-11T16:10:03.456Z,6.73
2019-01-11T16:13:05.043Z,6.60
2019-01-11T16:16:20.304Z,7.23
2019-01-11T16:18:54.726Z,5.70
2019-01-11T16:25:26.404Z,6.23
2019-01-11T16:28:29.043Z,6.23
2019-01-11T16:31:07.387Z,6.53
2019-01-11T16:34:26.334Z,6.80
2019-01-11T16:37:29.499Z,6.00
2019-01-11T16:40:08.507Z,4.80
2019-01-11T16:46:26.047Z,6.27
2019-01-11T16:50:02.531Z,6.27
2019-01-11T16:53:27.255Z,6.70
2019-01-11T16:57:04.938Z,8.50
2019-01-11T17:03:36.190Z,6.00
2019-01-11T17:06:43.649Z,7.30
2019-01-11T17:09:27.894Z,7.33
2019-01-11T17:12:02.862Z,8.07
2019-01-11T17:15:26.289Z,5.50
2019-01-11T17:18:52.996Z,7.57
2019-01-11T17:21:43.703Z,6.70
2019-01-11T17:28:25.069Z,7.47
2019-01-11T17:31:34.585Z,8.43
2019-01-11T17:34:04.505Z,7.13
2019-01-11T17:37:33.219Z,8.37
2019-01-11T17:42:46.191Z,8.53
2019-01-11T17:45:15.923Z,8.73
2019-01-11T17:48:05.971Z,9.23
2019-01-11T17:50:52.086Z,6.80
2019-01-11T17:53:50.591Z,8.53
2019-01-11T17:56:25.370Z,7.13
2019-01-11T18:02:29.901Z,8.20
2019-01-11T18:05:28.846Z,8.40
2019-01-11T18:07:59.450Z,7.80
2019-01-11T18:10:56.035Z,8.00
2019-01-11T18:13:35.184Z,7.50
2019-01-11T18:16:10.701Z,8.87
2019-01-11T18:18:56.133Z,9.07
2019-01-11T18:21:47.223Z,9.20
2019-01-11T18:24:21.300Z,9.20
2019-01-11T18:26:53.710Z,9.60
2019-01-11T18:29:25.912Z,13.10
2019-01-11T18:32:03.133Z,11.10
2019-01-11T18:34:32.978Z,11.53
2019-01-11T18:37:14.907Z,10.40
2019-01-11T18:39:48.808Z,8.73
2019-01-11T18:42:35.198Z,10.90
2019-01-11T18:45:11.081Z,8.40
2019-01-11T18:47:49.582Z,8.10
2019-01-11T18:50:24.994Z,7.87
2019-01-11T18:52:54.727Z,6.33
2019-01-11T18:55:31.455Z,7.20
2019-01-11T18:58:07.380Z,7.60
2019-01-11T19:00:46.457Z,5.50
2019-01-11T19:03:25.395Z,5.83
2019-01-11T19:06:10.240Z,5.77
2019-01-11T19:08:47.839Z,5.83
2019-01-11T19:11:17.481Z,4.90
2019-01-11T19:13:58.461Z,6.00
2019-01-11T19:16:59.378Z,5.60
2019-01-11T19:19:54.629Z,6.17
2019-01-11T19:22:27.769Z,5.90
2019-01-11T19:25:00.431Z,6.13
2019-01-11T19:27:35.354Z,5.50
2019-01-11T19:30:11.031Z,5.03
2019-01-11T19:32:42.789Z,6.53
2019-01-11T19:35:13.812Z,6.10
2019-01-11T19:37:55.663Z,7.30
2019-01-11T19:40:27.280Z,6.17
2019-01-11T19:42:59.666Z,6.77
2019-01-11T19:45:33.183Z,7.20
2019-01-11T19:48:07.172Z,6.20
2019-01-11T19:50:38.078Z,6.50
2019-01-11T19:53:11.678Z,5.70
2019-01-11T19:55:47.886Z,5.40
2019-01-11T19:58:18.855Z,5.77
2019-01-11T20:00:49.995Z,7.40
2019-01-11T20:03:55.072Z,5.90
2019-01-11T20:10:37.522Z,6.07
2019-01-11T20:14:07.346Z,4.47
2019-01-11T20:17:22.121Z,4.50
2019-01-11T20:20:15.291Z,4.57
2019-01-11T20:23:19.588Z,5.17
2019-01-11T20:29:35.133Z,3.80
2019-01-11T20:32:06.601Z,3.37
2019-01-11T20:35:14.470Z,3.03
2019-01-11T20:38:45.291Z,2.47
2019-01-11T20:45:08.375Z,2.90
2019-01-11T20:48:41.947Z,2.70
2019-01-11T20:54:48.559Z,2.80
2019-01-11T20:57:22.304Z,3.10
2019-01-11T21:03:49.160Z,3.20
2019-01-11T21:07:26.499Z,3.60
2019-01-11T21:12:46.775Z,2.93
2019-01-11T21:15:46.908Z,2.67
2019-01-11T21:21:28.267Z,2.87
2019-01-11T21:24:03.594Z,2.80
2019-01-11T21:27:00.963Z,3.33
2019-01-11T21:33:12.013Z,3.50
2019-01-11T21:36:20.121Z,3.70
2019-01-11T21:45:41.114Z,3.33
2019-01-11T22:36:58.830Z,3.03
2019-01-11T22:44:51.097Z,2.63
2019-01-11T22:48:11.276Z,2.50
2019-01-11T22:50:40.860Z,3.13
2019-01-11T22:53:10.444Z,3.00
2019-01-11T22:56:42.314Z,2.67
2019-01-11T22:59:13.676Z,3.60
2019-01-11T23:02:36.678Z,3.53
2019-01-11T23:05:48.618Z,3.40
2019-01-11T23:08:25.033Z,3.20
2019-01-11T23:11:30.278Z,3.57
2019-01-11T23:14:05.214Z,4.07
2019-01-11T23:16:53.779Z,3.53
2019-01-11T23:19:46.888Z,2.97
2019-01-11T23:22:16.891Z,3.90
2019-01-11T23:24:48.358Z,3.53
2019-01-11T23:27:33.183Z,3.90
2019-01-11T23:30:03.807Z,3.90
2019-01-11T23:32:35.529Z,4.07
2019-01-11T23:35:29.773Z,4.60
2019-01-11T23:37:59.912Z,3.60
2019-01-11T23:40:32.836Z,4.23
2019-01-11T23:43:06.819Z,3.73
2019-01-11T23:45:36.894Z,3.57
2019-01-11T23:48:06.352Z,4.30
2019-01-11T23:50:48.227Z,4.03
2019-01-11T23:53:24.019Z,4.60
2019-01-11T23:55:55.304Z,3.67
2019-01-11T23:58:26.109Z,3.17
